sensor_id;sensor_type;location;lat;lon;timestamp;P1;durP1;ratioP1;P2;durP2;ratioP2
13592;SDS011;6867;50.998;4.250;2022-12-18T00:02:03;39.87;;;18.13;;
13592;SDS011;6867;50.998;4.250;2022-12-18T00:04:30;35.23;;;17.47;;
13592;SDS011;6867;50.998;4.250;2022-12-18T00:06:58;37.57;;;16.83;;
13592;SDS011;6867;50.998;4.250;2022-12-18T00:09:25;47.10;;;19.50;;
13592;SDS011;6867;50.998;4.250;2022-12-18T00:11:51;39.60;;;18.17;;
13592;SDS011;6867;50.998;4.250;2022-12-18T00:14:18;39.87;;;18.40;;
13592;SDS011;6867;50.998;4.250;2022-12-18T00:16:45;44.27;;;17.33;;
13592;SDS011;6867;50.998;4.250;2022-12-18T00:19:13;43.03;;;18.07;;
13592;SDS011;6867;50.998;4.250;2022-12-18T00:21:40;40.97;;;18.37;;
13592;SDS011;6867;50.998;4.250;2022-12-18T00:24:09;44.10;;;18.90;;
13592;SDS011;6867;50.998;4.250;2022-12-18T00:26:36;48.03;;;18.53;;
13592;SDS011;6867;50.998;4.250;2022-12-18T00:29:05;40.63;;;19.27;;
13592;SDS011;6867;50.998;4.250;2022-12-18T00:31:33;43.37;;;19.23;;
13592;SDS011;6867;50.998;4.250;2022-12-18T00:34:00;40.63;;;18.43;;
13592;SDS011;6867;50.998;4.250;2022-12-18T00:36:28;42.07;;;18.20;;
13592;SDS011;6867;50.998;4.250;2022-12-18T00:38:56;48.07;;;19.33;;
13592;SDS011;6867;50.998;4.250;2022-12-18T00:41:25;40.90;;;18.97;;
13592;SDS011;6867;50.998;4.250;2022-12-18T00:44:10;41.20;;;17.67;;
13592;SDS011;6867;50.998;4.250;2022-12-18T00:46:39;40.83;;;17.90;;
13592;SDS011;6867;50.998;4.250;2022-12-18T00:49:06;40.33;;;17.63;;
13592;SDS011;6867;50.998;4.250;2022-12-18T00:51:33;47.17;;;19.47;;
13592;SDS011;6867;50.998;4.250;2022-12-18T00:53:59;37.07;;;18.93;;
13592;SDS011;6867;50.998;4.250;2022-12-18T00:56:27;39.17;;;17.93;;
13592;SDS011;6867;50.998;4.250;2022-12-18T00:58:54;36.20;;;17.43;;
13592;SDS011;6867;50.998;4.250;2022-12-18T01:01:21;40.03;;;18.13;;
13592;SDS011;6867;50.998;4.250;2022-12-18T01:03:48;38.53;;;18.73;;
13592;SDS011;6867;50.998;4.250;2022-12-18T01:06:15;41.20;;;17.97;;
13592;SDS011;6867;50.998;4.250;2022-12-18T01:08:42;38.63;;;19.33;;
13592;SDS011;6867;50.998;4.250;2022-12-18T01:11:10;45.97;;;18.70;;
13592;SDS011;6867;50.998;4.250;2022-12-18T01:13:39;42.80;;;18.93;;
13592;SDS011;6867;50.998;4.250;2022-12-18T01:16:06;42.93;;;18.90;;
13592;SDS011;6867;50.998;4.250;2022-12-18T01:18:34;41.53;;;18.37;;
13592;SDS011;6867;50.998;4.250;2022-12-18T01:21:00;37.43;;;19.07;;
13592;SDS011;6867;50.998;4.250;2022-12-18T01:23:32;34.87;;;16.97;;
13592;SDS011;6867;50.998;4.250;2022-12-18T01:26:03;46.10;;;20.70;;
13592;SDS011;6867;50.998;4.250;2022-12-18T01:28:31;39.60;;;18.90;;
13592;SDS011;6867;50.998;4.250;2022-12-18T01:30:59;41.13;;;17.97;;
13592;SDS011;6867;50.998;4.250;2022-12-18T01:33:35;39.90;;;19.97;;
13592;SDS011;6867;50.998;4.250;2022-12-18T01:36:02;41.50;;;20.50;;
13592;SDS011;6867;50.998;4.250;2022-12-18T01:38:29;31.17;;;18.20;;
13592;SDS011;6867;50.998;4.250;2022-12-18T01:40:56;39.80;;;18.20;;
13592;SDS011;6867;50.998;4.250;2022-12-18T01:46:10;33.10;;;17.43;;
13592;SDS011;6867;50.998;4.250;2022-12-18T01:48:37;40.37;;;19.47;;
13592;SDS011;6867;50.998;4.250;2022-12-18T01:51:05;40.17;;;19.33;;
13592;SDS011;6867;50.998;4.250;2022-12-18T01:53:34;44.97;;;17.83;;
13592;SDS011;6867;50.998;4.250;2022-12-18T01:56:03;38.87;;;17.77;;
13592;SDS011;6867;50.998;4.250;2022-12-18T01:58:32;38.80;;;18.93;;
13592;SDS011;6867;50.998;4.250;2022-12-18T02:01:05;38.80;;;17.53;;
13592;SDS011;6867;50.998;4.250;2022-12-18T02:03:33;44.43;;;19.27;;
13592;SDS011;6867;50.998;4.250;2022-12-18T02:06:01;43.40;;;19.40;;
13592;SDS011;6867;50.998;4.250;2022-12-18T02:08:37;36.43;;;17.77;;
13592;SDS011;6867;50.998;4.250;2022-12-18T02:11:15;37.67;;;17.20;;
13592;SDS011;6867;50.998;4.250;2022-12-18T02:13:50;38.80;;;17.93;;
13592;SDS011;6867;50.998;4.250;2022-12-18T02:16:24;38.07;;;17.53;;
13592;SDS011;6867;50.998;4.250;2022-12-18T02:18:58;35.63;;;18.27;;
13592;SDS011;6867;50.998;4.250;2022-12-18T02:21:28;37.37;;;18.03;;
13592;SDS011;6867;50.998;4.250;2022-12-18T02:24:12;33.00;;;16.73;;
13592;SDS011;6867;50.998;4.250;2022-12-18T02:26:49;37.20;;;18.47;;
13592;SDS011;6867;50.998;4.250;2022-12-18T02:29:18;39.97;;;17.87;;
13592;SDS011;6867;50.998;4.250;2022-12-18T02:31:49;42.73;;;17.90;;
13592;SDS011;6867;50.998;4.250;2022-12-18T02:34:19;44.27;;;18.57;;
13592;SDS011;6867;50.998;4.250;2022-12-18T02:36:49;42.23;;;18.43;;
13592;SDS011;6867;50.998;4.250;2022-12-18T02:39:19;42.17;;;18.03;;
13592;SDS011;6867;50.998;4.250;2022-12-18T02:41:50;38.37;;;17.47;;
13592;SDS011;6867;50.998;4.250;2022-12-18T02:44:17;38.00;;;18.00;;
13592;SDS011;6867;50.998;4.250;2022-12-18T02:46:44;37.33;;;17.93;;
13592;SDS011;6867;50.998;4.250;2022-12-18T02:49:21;38.80;;;18.90;;
13592;SDS011;6867;50.998;4.250;2022-12-18T02:52:01;47.40;;;19.03;;
13592;SDS011;6867;50.998;4.250;2022-12-18T02:54:38;37.23;;;16.33;;
13592;SDS011;6867;50.998;4.250;2022-12-18T02:57:18;45.20;;;18.27;;
13592;SDS011;6867;50.998;4.250;2022-12-18T02:59:54;34.73;;;17.57;;
13592;SDS011;6867;50.998;4.250;2022-12-18T03:02:25;38.03;;;17.07;;
13592;SDS011;6867;50.998;4.250;2022-12-18T03:04:57;38.77;;;18.00;;
13592;SDS011;6867;50.998;4.250;2022-12-18T03:07:33;34.37;;;16.40;;
13592;SDS011;6867;50.998;4.250;2022-12-18T03:10:04;35.63;;;17.27;;
13592;SDS011;6867;50.998;4.250;2022-12-18T03:12:37;33.63;;;17.20;;
13592;SDS011;6867;50.998;4.250;2022-12-18T03:15:09;30.53;;;14.67;;
13592;SDS011;6867;50.998;4.250;2022-12-18T03:17:41;40.27;;;16.43;;
13592;SDS011;6867;50.998;4.250;2022-12-18T03:20:14;38.27;;;18.20;;
13592;SDS011;6867;50.998;4.250;2022-12-18T03:22:45;39.40;;;16.27;;
13592;SDS011;6867;50.998;4.250;2022-12-18T03:25:17;35.37;;;15.90;;
13592;SDS011;6867;50.998;4.250;2022-12-18T03:27:47;36.33;;;16.83;;
13592;SDS011;6867;50.998;4.250;2022-12-18T03:30:18;35.93;;;16.67;;
13592;SDS011;6867;50.998;4.250;2022-12-18T03:32:46;38.13;;;16.43;;
13592;SDS011;6867;50.998;4.250;2022-12-18T03:35:16;38.23;;;17.70;;
13592;SDS011;6867;50.998;4.250;2022-12-18T03:37:47;36.53;;;16.63;;
13592;SDS011;6867;50.998;4.250;2022-12-18T03:40:14;30.83;;;14.93;;
13592;SDS011;6867;50.998;4.250;2022-12-18T03:42:43;32.43;;;15.23;;
13592;SDS011;6867;50.998;4.250;2022-12-18T03:45:18;32.90;;;15.03;;
13592;SDS011;6867;50.998;4.250;2022-12-18T03:47:51;32.33;;;15.73;;
13592;SDS011;6867;50.998;4.250;2022-12-18T03:50:25;36.53;;;14.10;;
13592;SDS011;6867;50.998;4.250;2022-12-18T03:52:59;33.30;;;15.53;;
13592;SDS011;6867;50.998;4.250;2022-12-18T03:55:32;31.70;;;16.07;;
13592;SDS011;6867;50.998;4.250;2022-12-18T03:58:02;37.30;;;16.20;;
13592;SDS011;6867;50.998;4.250;2022-12-18T04:00:32;29.70;;;15.37;;
13592;SDS011;6867;50.998;4.250;2022-12-18T04:03:00;30.33;;;15.97;;
13592;SDS011;6867;50.998;4.250;2022-12-18T04:05:28;31.07;;;16.00;;
13592;SDS011;6867;50.998;4.250;2022-12-18T04:07:56;26.77;;;13.33;;
13592;SDS011;6867;50.998;4.250;2022-12-18T04:10:23;30.23;;;14.27;;
13592;SDS011;6867;50.998;4.250;2022-12-18T04:12:50;36.40;;;15.20;;
13592;SDS011;6867;50.998;4.250;2022-12-18T04:15:19;30.87;;;15.53;;
13592;SDS011;6867;50.998;4.250;2022-12-18T04:17:47;31.73;;;14.30;;
13592;SDS011;6867;50.998;4.250;2022-12-18T04:20:15;31.93;;;13.83;;
13592;SDS011;6867;50.998;4.250;2022-12-18T04:22:42;29.83;;;14.93;;
13592;SDS011;6867;50.998;4.250;2022-12-18T04:25:09;27.90;;;14.13;;
13592;SDS011;6867;50.998;4.250;2022-12-18T04:27:36;29.10;;;14.07;;
13592;SDS011;6867;50.998;4.250;2022-12-18T04:30:03;31.43;;;13.57;;
13592;SDS011;6867;50.998;4.250;2022-12-18T04:32:31;33.03;;;14.57;;
13592;SDS011;6867;50.998;4.250;2022-12-18T04:34:59;29.17;;;14.23;;
13592;SDS011;6867;50.998;4.250;2022-12-18T04:37:26;29.60;;;13.63;;
13592;SDS011;6867;50.998;4.250;2022-12-18T04:39:53;24.17;;;12.33;;
13592;SDS011;6867;50.998;4.250;2022-12-18T04:42:19;25.63;;;14.33;;
13592;SDS011;6867;50.998;4.250;2022-12-18T04:44:46;25.47;;;13.27;;
13592;SDS011;6867;50.998;4.250;2022-12-18T04:47:13;22.87;;;13.07;;
13592;SDS011;6867;50.998;4.250;2022-12-18T04:49:41;26.83;;;13.93;;
13592;SDS011;6867;50.998;4.250;2022-12-18T04:52:08;26.80;;;12.53;;
13592;SDS011;6867;50.998;4.250;2022-12-18T04:54:34;35.80;;;13.70;;
13592;SDS011;6867;50.998;4.250;2022-12-18T04:57:01;25.90;;;13.77;;
13592;SDS011;6867;50.998;4.250;2022-12-18T04:59:28;33.30;;;13.60;;
13592;SDS011;6867;50.998;4.250;2022-12-18T05:01:54;25.00;;;13.67;;
13592;SDS011;6867;50.998;4.250;2022-12-18T05:04:21;30.67;;;14.40;;
13592;SDS011;6867;50.998;4.250;2022-12-18T05:06:49;29.63;;;13.87;;
13592;SDS011;6867;50.998;4.250;2022-12-18T05:09:16;24.40;;;12.53;;
13592;SDS011;6867;50.998;4.250;2022-12-18T05:11:42;26.67;;;14.17;;
13592;SDS011;6867;50.998;4.250;2022-12-18T05:14:09;27.57;;;13.37;;
13592;SDS011;6867;50.998;4.250;2022-12-18T05:16:36;28.50;;;13.43;;
13592;SDS011;6867;50.998;4.250;2022-12-18T05:19:02;27.70;;;13.70;;
13592;SDS011;6867;50.998;4.250;2022-12-18T05:21:29;29.13;;;13.77;;
13592;SDS011;6867;50.998;4.250;2022-12-18T05:23:57;25.03;;;12.87;;
13592;SDS011;6867;50.998;4.250;2022-12-18T05:26:24;26.70;;;12.93;;
13592;SDS011;6867;50.998;4.250;2022-12-18T05:28:51;24.50;;;14.07;;
13592;SDS011;6867;50.998;4.250;2022-12-18T05:31:17;23.90;;;12.27;;
13592;SDS011;6867;50.998;4.250;2022-12-18T05:33:44;27.17;;;13.93;;
13592;SDS011;6867;50.998;4.250;2022-12-18T05:36:10;31.77;;;15.07;;
13592;SDS011;6867;50.998;4.250;2022-12-18T05:38:38;27.43;;;13.77;;
13592;SDS011;6867;50.998;4.250;2022-12-18T05:41:06;32.10;;;14.37;;
13592;SDS011;6867;50.998;4.250;2022-12-18T05:43:34;25.63;;;14.27;;
13592;SDS011;6867;50.998;4.250;2022-12-18T05:46:05;28.73;;;14.47;;
13592;SDS011;6867;50.998;4.250;2022-12-18T05:48:33;25.23;;;12.87;;
13592;SDS011;6867;50.998;4.250;2022-12-18T05:51:04;27.70;;;12.70;;
13592;SDS011;6867;50.998;4.250;2022-12-18T05:53:32;26.83;;;13.43;;
13592;SDS011;6867;50.998;4.250;2022-12-18T05:56:00;29.50;;;13.57;;
13592;SDS011;6867;50.998;4.250;2022-12-18T05:58:29;28.53;;;13.17;;
13592;SDS011;6867;50.998;4.250;2022-12-18T06:00:57;30.20;;;13.60;;
13592;SDS011;6867;50.998;4.250;2022-12-18T06:03:24;30.13;;;13.60;;
13592;SDS011;6867;50.998;4.250;2022-12-18T06:05:51;28.37;;;14.47;;
13592;SDS011;6867;50.998;4.250;2022-12-18T06:08:17;26.40;;;13.43;;
13592;SDS011;6867;50.998;4.250;2022-12-18T06:10:49;24.47;;;11.50;;
13592;SDS011;6867;50.998;4.250;2022-12-18T06:13:19;24.37;;;12.13;;
13592;SDS011;6867;50.998;4.250;2022-12-18T06:15:47;24.07;;;12.40;;
13592;SDS011;6867;50.998;4.250;2022-12-18T06:18:14;29.30;;;11.63;;
13592;SDS011;6867;50.998;4.250;2022-12-18T06:20:41;20.03;;;11.67;;
13592;SDS011;6867;50.998;4.250;2022-12-18T06:23:07;24.13;;;12.00;;
13592;SDS011;6867;50.998;4.250;2022-12-18T06:25:36;25.17;;;13.70;;
13592;SDS011;6867;50.998;4.250;2022-12-18T06:28:04;29.33;;;13.33;;
13592;SDS011;6867;50.998;4.250;2022-12-18T06:30:31;31.07;;;13.43;;
13592;SDS011;6867;50.998;4.250;2022-12-18T06:32:59;30.27;;;12.13;;
13592;SDS011;6867;50.998;4.250;2022-12-18T06:35:25;23.13;;;11.17;;
13592;SDS011;6867;50.998;4.250;2022-12-18T06:37:52;31.13;;;14.07;;
13592;SDS011;6867;50.998;4.250;2022-12-18T06:40:19;30.60;;;12.80;;
13592;SDS011;6867;50.998;4.250;2022-12-18T06:42:45;32.30;;;13.40;;
13592;SDS011;6867;50.998;4.250;2022-12-18T06:45:15;33.23;;;14.30;;
13592;SDS011;6867;50.998;4.250;2022-12-18T06:47:42;26.43;;;14.57;;
13592;SDS011;6867;50.998;4.250;2022-12-18T06:50:10;22.53;;;13.13;;
13592;SDS011;6867;50.998;4.250;2022-12-18T06:52:37;25.17;;;14.90;;
13592;SDS011;6867;50.998;4.250;2022-12-18T06:55:05;28.23;;;16.00;;
13592;SDS011;6867;50.998;4.250;2022-12-18T06:57:35;32.57;;;15.97;;
13592;SDS011;6867;50.998;4.250;2022-12-18T07:00:02;31.17;;;17.30;;
13592;SDS011;6867;50.998;4.250;2022-12-18T07:02:29;30.90;;;19.00;;
13592;SDS011;6867;50.998;4.250;2022-12-18T07:04:57;38.40;;;16.97;;
13592;SDS011;6867;50.998;4.250;2022-12-18T07:07:25;35.13;;;18.67;;
13592;SDS011;6867;50.998;4.250;2022-12-18T07:09:51;31.73;;;17.03;;
13592;SDS011;6867;50.998;4.250;2022-12-18T07:12:18;27.60;;;17.67;;
13592;SDS011;6867;50.998;4.250;2022-12-18T07:14:45;27.30;;;17.97;;
13592;SDS011;6867;50.998;4.250;2022-12-18T07:17:11;25.73;;;14.87;;
13592;SDS011;6867;50.998;4.250;2022-12-18T07:19:38;32.47;;;17.90;;
13592;SDS011;6867;50.998;4.250;2022-12-18T07:22:05;26.93;;;13.07;;
13592;SDS011;6867;50.998;4.250;2022-12-18T07:24:33;21.27;;;12.40;;
13592;SDS011;6867;50.998;4.250;2022-12-18T07:27:00;23.33;;;12.10;;
13592;SDS011;6867;50.998;4.250;2022-12-18T07:29:27;22.50;;;12.90;;
13592;SDS011;6867;50.998;4.250;2022-12-18T07:31:53;24.60;;;14.03;;
13592;SDS011;6867;50.998;4.250;2022-12-18T07:34:20;25.07;;;13.13;;
13592;SDS011;6867;50.998;4.250;2022-12-18T07:36:46;21.13;;;12.47;;
13592;SDS011;6867;50.998;4.250;2022-12-18T07:39:13;24.23;;;11.67;;
13592;SDS011;6867;50.998;4.250;2022-12-18T07:41:42;21.57;;;10.60;;
13592;SDS011;6867;50.998;4.250;2022-12-18T07:44:11;21.30;;;10.80;;
13592;SDS011;6867;50.998;4.250;2022-12-18T07:46:38;16.77;;;10.30;;
13592;SDS011;6867;50.998;4.250;2022-12-18T07:49:05;22.70;;;11.07;;
13592;SDS011;6867;50.998;4.250;2022-12-18T07:51:32;16.27;;;9.43;;
13592;SDS011;6867;50.998;4.250;2022-12-18T07:53:58;20.03;;;10.90;;
13592;SDS011;6867;50.998;4.250;2022-12-18T07:56:25;27.10;;;13.27;;
13592;SDS011;6867;50.998;4.250;2022-12-18T07:58:53;18.13;;;9.80;;
13592;SDS011;6867;50.998;4.250;2022-12-18T08:01:20;24.50;;;11.60;;
13592;SDS011;6867;50.998;4.250;2022-12-18T08:03:47;24.93;;;12.10;;
13592;SDS011;6867;50.998;4.250;2022-12-18T08:06:14;15.30;;;8.37;;
13592;SDS011;6867;50.998;4.250;2022-12-18T08:08:40;25.43;;;12.17;;
13592;SDS011;6867;50.998;4.250;2022-12-18T08:11:07;18.50;;;9.80;;
13592;SDS011;6867;50.998;4.250;2022-12-18T08:13:34;22.53;;;11.43;;
13592;SDS011;6867;50.998;4.250;2022-12-18T08:16:02;25.53;;;10.87;;
13592;SDS011;6867;50.998;4.250;2022-12-18T08:18:32;22.40;;;10.27;;
13592;SDS011;6867;50.998;4.250;2022-12-18T08:21:07;28.50;;;12.87;;
13592;SDS011;6867;50.998;4.250;2022-12-18T08:23:35;15.00;;;10.10;;
13592;SDS011;6867;50.998;4.250;2022-12-18T08:26:01;30.50;;;10.73;;
13592;SDS011;6867;50.998;4.250;2022-12-18T08:28:28;23.53;;;13.27;;
13592;SDS011;6867;50.998;4.250;2022-12-18T08:30:55;24.17;;;12.17;;
13592;SDS011;6867;50.998;4.250;2022-12-18T08:33:23;20.40;;;10.27;;
13592;SDS011;6867;50.998;4.250;2022-12-18T08:35:50;19.03;;;10.67;;
13592;SDS011;6867;50.998;4.250;2022-12-18T08:38:17;22.67;;;12.13;;
13592;SDS011;6867;50.998;4.250;2022-12-18T08:40:44;23.60;;;12.67;;
13592;SDS011;6867;50.998;4.250;2022-12-18T08:43:11;22.90;;;11.80;;
13592;SDS011;6867;50.998;4.250;2022-12-18T08:45:55;22.97;;;11.03;;
13592;SDS011;6867;50.998;4.250;2022-12-18T08:48:23;24.87;;;12.90;;
13592;SDS011;6867;50.998;4.250;2022-12-18T08:50:53;29.57;;;11.23;;
13592;SDS011;6867;50.998;4.250;2022-12-18T08:53:20;23.50;;;10.87;;
13592;SDS011;6867;50.998;4.250;2022-12-18T08:55:47;22.03;;;12.77;;
13592;SDS011;6867;50.998;4.250;2022-12-18T08:58:14;20.90;;;11.70;;
13592;SDS011;6867;50.998;4.250;2022-12-18T09:00:40;20.37;;;12.03;;
13592;SDS011;6867;50.998;4.250;2022-12-18T09:03:10;24.50;;;13.30;;
13592;SDS011;6867;50.998;4.250;2022-12-18T09:05:39;26.73;;;14.60;;
13592;SDS011;6867;50.998;4.250;2022-12-18T09:08:06;18.00;;;11.90;;
13592;SDS011;6867;50.998;4.250;2022-12-18T09:10:33;24.50;;;13.90;;
13592;SDS011;6867;50.998;4.250;2022-12-18T09:12:59;22.10;;;11.90;;
13592;SDS011;6867;50.998;4.250;2022-12-18T09:15:26;23.97;;;14.43;;
13592;SDS011;6867;50.998;4.250;2022-12-18T09:17:53;26.47;;;14.50;;
13592;SDS011;6867;50.998;4.250;2022-12-18T09:20:19;25.13;;;13.53;;
13592;SDS011;6867;50.998;4.250;2022-12-18T09:22:47;26.03;;;13.13;;
13592;SDS011;6867;50.998;4.250;2022-12-18T09:25:14;25.23;;;13.07;;
13592;SDS011;6867;50.998;4.250;2022-12-18T09:27:41;24.87;;;12.53;;
13592;SDS011;6867;50.998;4.250;2022-12-18T09:30:08;23.87;;;12.53;;
13592;SDS011;6867;50.998;4.250;2022-12-18T09:32:35;23.60;;;11.53;;
13592;SDS011;6867;50.998;4.250;2022-12-18T09:35:02;21.40;;;12.90;;
13592;SDS011;6867;50.998;4.250;2022-12-18T09:37:29;18.73;;;11.27;;
13592;SDS011;6867;50.998;4.250;2022-12-18T09:39:57;26.83;;;13.00;;
13592;SDS011;6867;50.998;4.250;2022-12-18T09:42:24;28.53;;;13.17;;
13592;SDS011;6867;50.998;4.250;2022-12-18T09:44:52;20.53;;;12.83;;
13592;SDS011;6867;50.998;4.250;2022-12-18T09:47:21;22.10;;;12.53;;
13592;SDS011;6867;50.998;4.250;2022-12-18T09:49:52;23.90;;;11.70;;
13592;SDS011;6867;50.998;4.250;2022-12-18T09:52:21;24.00;;;12.70;;
13592;SDS011;6867;50.998;4.250;2022-12-18T09:54:53;23.13;;;13.33;;
13592;SDS011;6867;50.998;4.250;2022-12-18T09:57:25;28.23;;;12.47;;
13592;SDS011;6867;50.998;4.250;2022-12-18T09:59:53;19.67;;;11.20;;
13592;SDS011;6867;50.998;4.250;2022-12-18T10:02:23;20.90;;;11.83;;
13592;SDS011;6867;50.998;4.250;2022-12-18T10:04:59;22.70;;;12.27;;
13592;SDS011;6867;50.998;4.250;2022-12-18T10:07:32;16.33;;;10.83;;
13592;SDS011;6867;50.998;4.250;2022-12-18T10:10:10;23.10;;;12.30;;
13592;SDS011;6867;50.998;4.250;2022-12-18T10:12:48;26.30;;;14.30;;
13592;SDS011;6867;50.998;4.250;2022-12-18T10:15:22;21.93;;;13.40;;
13592;SDS011;6867;50.998;4.250;2022-12-18T10:17:57;24.97;;;11.23;;
13592;SDS011;6867;50.998;4.250;2022-12-18T10:20:34;23.90;;;10.87;;
13592;SDS011;6867;50.998;4.250;2022-12-18T10:23:09;21.23;;;12.67;;
13592;SDS011;6867;50.998;4.250;2022-12-18T10:25:44;23.60;;;12.03;;
13592;SDS011;6867;50.998;4.250;2022-12-18T10:28:18;22.23;;;11.37;;
13592;SDS011;6867;50.998;4.250;2022-12-18T10:30:46;20.37;;;11.87;;
13592;SDS011;6867;50.998;4.250;2022-12-18T10:33:17;21.07;;;12.17;;
13592;SDS011;6867;50.998;4.250;2022-12-18T10:35:45;19.17;;;10.87;;
13592;SDS011;6867;50.998;4.250;2022-12-18T10:38:23;21.20;;;12.03;;
13592;SDS011;6867;50.998;4.250;2022-12-18T10:40:52;22.43;;;11.43;;
13592;SDS011;6867;50.998;4.250;2022-12-18T10:43:22;24.67;;;13.53;;
13592;SDS011;6867;50.998;4.250;2022-12-18T10:46:01;19.70;;;11.67;;
13592;SDS011;6867;50.998;4.250;2022-12-18T10:48:40;22.50;;;13.40;;
13592;SDS011;6867;50.998;4.250;2022-12-18T10:51:19;25.67;;;13.67;;
13592;SDS011;6867;50.998;4.250;2022-12-18T10:53:51;21.67;;;12.53;;
13592;SDS011;6867;50.998;4.250;2022-12-18T10:56:20;25.30;;;13.13;;
13592;SDS011;6867;50.998;4.250;2022-12-18T10:58:56;18.97;;;11.30;;
13592;SDS011;6867;50.998;4.250;2022-12-18T11:01:24;22.30;;;11.93;;
13592;SDS011;6867;50.998;4.250;2022-12-18T11:03:59;25.43;;;12.97;;
13592;SDS011;6867;50.998;4.250;2022-12-18T11:06:28;20.67;;;11.47;;
13592;SDS011;6867;50.998;4.250;2022-12-18T11:08:59;19.73;;;12.00;;
13592;SDS011;6867;50.998;4.250;2022-12-18T11:11:26;20.03;;;11.33;;
13592;SDS011;6867;50.998;4.250;2022-12-18T11:13:57;21.53;;;11.37;;
13592;SDS011;6867;50.998;4.250;2022-12-18T11:16:27;19.07;;;10.77;;
13592;SDS011;6867;50.998;4.250;2022-12-18T11:18:59;20.20;;;10.90;;
13592;SDS011;6867;50.998;4.250;2022-12-18T11:21:38;21.60;;;10.77;;
13592;SDS011;6867;50.998;4.250;2022-12-18T11:24:07;18.40;;;10.97;;
13592;SDS011;6867;50.998;4.250;2022-12-18T11:26:49;19.50;;;10.73;;
13592;SDS011;6867;50.998;4.250;2022-12-18T11:29:18;15.53;;;9.83;;
13592;SDS011;6867;50.998;4.250;2022-12-18T11:31:50;18.33;;;10.40;;
13592;SDS011;6867;50.998;4.250;2022-12-18T11:34:19;21.77;;;10.57;;
13592;SDS011;6867;50.998;4.250;2022-12-18T11:36:52;19.00;;;10.27;;
13592;SDS011;6867;50.998;4.250;2022-12-18T11:39:24;17.90;;;10.40;;
13592;SDS011;6867;50.998;4.250;2022-12-18T11:41:59;23.33;;;12.13;;
13592;SDS011;6867;50.998;4.250;2022-12-18T11:44:40;20.73;;;11.23;;
13592;SDS011;6867;50.998;4.250;2022-12-18T11:47:13;20.03;;;11.53;;
13592;SDS011;6867;50.998;4.250;2022-12-18T11:49:47;21.67;;;12.50;;
13592;SDS011;6867;50.998;4.250;2022-12-18T11:52:16;21.30;;;12.97;;
13592;SDS011;6867;50.998;4.250;2022-12-18T11:54:50;36.67;;;24.97;;
13592;SDS011;6867;50.998;4.250;2022-12-18T11:57:19;25.30;;;17.20;;
13592;SDS011;6867;50.998;4.250;2022-12-18T12:00:04;28.43;;;18.90;;
13592;SDS011;6867;50.998;4.250;2022-12-18T12:02:41;29.77;;;17.33;;
13592;SDS011;6867;50.998;4.250;2022-12-18T12:05:20;22.50;;;13.80;;
13592;SDS011;6867;50.998;4.250;2022-12-18T12:07:59;33.93;;;16.70;;
13592;SDS011;6867;50.998;4.250;2022-12-18T12:10:36;25.80;;;12.87;;
13592;SDS011;6867;50.998;4.250;2022-12-18T12:13:15;25.27;;;14.20;;
13592;SDS011;6867;50.998;4.250;2022-12-18T12:15:56;22.53;;;14.53;;
13592;SDS011;6867;50.998;4.250;2022-12-18T12:18:36;28.27;;;16.43;;
13592;SDS011;6867;50.998;4.250;2022-12-18T12:21:16;24.00;;;16.73;;
13592;SDS011;6867;50.998;4.250;2022-12-18T12:23:51;27.13;;;16.63;;
13592;SDS011;6867;50.998;4.250;2022-12-18T12:26:27;24.37;;;16.93;;
13592;SDS011;6867;50.998;4.250;2022-12-18T12:29:00;27.13;;;19.77;;
13592;SDS011;6867;50.998;4.250;2022-12-18T12:31:38;25.77;;;17.00;;
13592;SDS011;6867;50.998;4.250;2022-12-18T12:34:18;25.73;;;16.43;;
13592;SDS011;6867;50.998;4.250;2022-12-18T12:36:52;31.83;;;15.93;;
13592;SDS011;6867;50.998;4.250;2022-12-18T12:39:31;21.57;;;11.87;;
13592;SDS011;6867;50.998;4.250;2022-12-18T12:42:02;22.23;;;14.10;;
13592;SDS011;6867;50.998;4.250;2022-12-18T12:44:48;21.23;;;12.53;;
13592;SDS011;6867;50.998;4.250;2022-12-18T12:47:20;21.17;;;12.37;;
13592;SDS011;6867;50.998;4.250;2022-12-18T12:49:51;39.27;;;24.40;;
13592;SDS011;6867;50.998;4.250;2022-12-18T12:52:21;32.17;;;21.50;;
13592;SDS011;6867;50.998;4.250;2022-12-18T12:54:55;23.67;;;14.93;;
13592;SDS011;6867;50.998;4.250;2022-12-18T12:57:25;23.87;;;16.47;;
13592;SDS011;6867;50.998;4.250;2022-12-18T12:59:58;20.80;;;14.17;;
13592;SDS011;6867;50.998;4.250;2022-12-18T13:02:31;30.50;;;14.50;;
13592;SDS011;6867;50.998;4.250;2022-12-18T13:05:03;21.70;;;13.90;;
13592;SDS011;6867;50.998;4.250;2022-12-18T13:07:40;21.03;;;13.33;;
13592;SDS011;6867;50.998;4.250;2022-12-18T13:10:14;24.23;;;14.43;;
13592;SDS011;6867;50.998;4.250;2022-12-18T13:12:56;20.90;;;12.97;;
13592;SDS011;6867;50.998;4.250;2022-12-18T13:15:25;22.57;;;13.60;;
13592;SDS011;6867;50.998;4.250;2022-12-18T13:18:04;24.27;;;15.53;;
13592;SDS011;6867;50.998;4.250;2022-12-18T13:20:38;22.20;;;13.30;;
13592;SDS011;6867;50.998;4.250;2022-12-18T13:25:54;22.87;;;13.70;;
13592;SDS011;6867;50.998;4.250;2022-12-18T13:28:22;22.27;;;13.97;;
13592;SDS011;6867;50.998;4.250;2022-12-18T13:31:09;26.10;;;14.03;;
13592;SDS011;6867;50.998;4.250;2022-12-18T13:33:41;23.90;;;14.00;;
13592;SDS011;6867;50.998;4.250;2022-12-18T13:36:26;25.00;;;13.93;;
13592;SDS011;6867;50.998;4.250;2022-12-18T13:45:36;29.53;;;14.13;;
13592;SDS011;6867;50.998;4.250;2022-12-18T13:48:05;23.23;;;12.77;;
13592;SDS011;6867;50.998;4.250;2022-12-18T13:50:43;22.80;;;13.10;;
13592;SDS011;6867;50.998;4.250;2022-12-18T13:53:16;21.03;;;11.67;;
13592;SDS011;6867;50.998;4.250;2022-12-18T13:55:48;24.40;;;11.03;;
13592;SDS011;6867;50.998;4.250;2022-12-18T13:58:16;19.37;;;10.47;;
13592;SDS011;6867;50.998;4.250;2022-12-18T14:00:42;22.20;;;11.73;;
13592;SDS011;6867;50.998;4.250;2022-12-18T14:03:15;22.23;;;10.83;;
13592;SDS011;6867;50.998;4.250;2022-12-18T14:05:45;18.73;;;10.77;;
13592;SDS011;6867;50.998;4.250;2022-12-18T14:08:19;23.70;;;11.90;;
13592;SDS011;6867;50.998;4.250;2022-12-18T14:10:47;20.57;;;11.10;;
13592;SDS011;6867;50.998;4.250;2022-12-18T14:13:17;21.37;;;10.50;;
13592;SDS011;6867;50.998;4.250;2022-12-18T14:15:53;22.87;;;12.00;;
13592;SDS011;6867;50.998;4.250;2022-12-18T14:18:20;20.90;;;11.37;;
13592;SDS011;6867;50.998;4.250;2022-12-18T14:20:51;26.90;;;12.97;;
13592;SDS011;6867;50.998;4.250;2022-12-18T14:23:29;19.97;;;11.27;;
13592;SDS011;6867;50.998;4.250;2022-12-18T14:25:58;28.03;;;12.30;;
13592;SDS011;6867;50.998;4.250;2022-12-18T14:28:25;16.90;;;10.23;;
13592;SDS011;6867;50.998;4.250;2022-12-18T14:30:52;22.60;;;12.17;;
13592;SDS011;6867;50.998;4.250;2022-12-18T14:33:20;23.80;;;12.27;;
13592;SDS011;6867;50.998;4.250;2022-12-18T14:35:53;24.47;;;12.03;;
13592;SDS011;6867;50.998;4.250;2022-12-18T14:38:24;24.20;;;12.33;;
13592;SDS011;6867;50.998;4.250;2022-12-18T14:40:54;24.00;;;11.50;;
13592;SDS011;6867;50.998;4.250;2022-12-18T14:43:25;26.63;;;12.83;;
13592;SDS011;6867;50.998;4.250;2022-12-18T14:45:53;22.57;;;11.57;;
13592;SDS011;6867;50.998;4.250;2022-12-18T14:48:20;26.17;;;12.03;;
13592;SDS011;6867;50.998;4.250;2022-12-18T14:50:56;24.60;;;13.00;;
13592;SDS011;6867;50.998;4.250;2022-12-18T14:53:29;24.77;;;12.00;;
13592;SDS011;6867;50.998;4.250;2022-12-18T14:56:00;28.40;;;11.67;;
13592;SDS011;6867;50.998;4.250;2022-12-18T14:58:27;26.40;;;12.27;;
13592;SDS011;6867;50.998;4.250;2022-12-18T15:00:54;27.80;;;13.23;;
13592;SDS011;6867;50.998;4.250;2022-12-18T15:03:21;28.57;;;13.30;;
13592;SDS011;6867;50.998;4.250;2022-12-18T15:05:48;24.37;;;12.57;;